createdAt,value
2023-06-11T00:01:53.555Z,100.00
2023-06-11T00:04:55.678Z,100.00
2023-06-11T00:08:02.142Z,100.00
2023-06-11T00:11:04.082Z,100.00
2023-06-11T00:14:06.307Z,100.00
2023-06-11T00:17:08.183Z,100.00
2023-06-11T00:20:11.064Z,100.00
2023-06-11T00:23:13.499Z,100.00
2023-06-11T00:26:15.345Z,100.00
2023-06-11T00:29:18.192Z,100.00
2023-06-11T00:32:21.109Z,100.00
2023-06-11T00:35:22.886Z,100.00
2023-06-11T00:38:25.295Z,100.00
2023-06-11T00:41:30.752Z,100.00
2023-06-11T00:44:32.946Z,100.00
2023-06-11T00:47:37.814Z,100.00
2023-06-11T00:50:46.407Z,100.00
2023-06-11T00:53:48.526Z,100.00
2023-06-11T00:56:50.305Z,100.00
2023-06-11T00:59:54.631Z,100.00
2023-06-11T01:03:08.914Z,100.00
2023-06-11T01:06:14.273Z,100.00
2023-06-11T01:09:19.047Z,100.00
2023-06-11T01:12:21.847Z,100.00
2023-06-11T01:15:23.630Z,100.00
2023-06-11T01:18:29.957Z,100.00
2023-06-11T01:21:46.337Z,100.00
2023-06-11T01:25:15.809Z,100.00
2023-06-11T01:28:23.255Z,100.00
2023-06-11T01:31:30.936Z,100.00
2023-06-11T01:34:33.834Z,100.00
2023-06-11T01:37:36.330Z,100.00
2023-06-11T01:40:40.686Z,100.00
2023-06-11T01:43:44.979Z,100.00
2023-06-11T01:46:46.960Z,100.00
2023-06-11T01:49:49.030Z,100.00
2023-06-11T01:52:51.204Z,100.00
2023-06-11T01:55:53.399Z,100.00
2023-06-11T01:58:55.239Z,100.00
2023-06-11T02:01:57.794Z,100.00
2023-06-11T02:04:59.699Z,100.00
2023-06-11T02:08:01.620Z,100.00
2023-06-11T02:11:04.898Z,100.00
2023-06-11T02:14:07.139Z,100.00
2023-06-11T02:17:10.927Z,100.00
2023-06-11T02:20:13.328Z,100.00
2023-06-11T02:23:15.445Z,100.00
2023-06-11T02:26:17.300Z,100.00
2023-06-11T02:29:19.038Z,100.00
2023-06-11T02:32:20.934Z,100.00
2023-06-11T02:35:24.054Z,100.00
2023-06-11T02:38:25.795Z,100.00
2023-06-11T02:41:28.064Z,100.00
2023-06-11T02:44:29.970Z,100.00
2023-06-11T02:47:31.857Z,100.00
2023-06-11T02:50:33.690Z,100.00
2023-06-11T02:53:35.557Z,100.00
2023-06-11T02:56:37.928Z,100.00
2023-06-11T02:59:39.743Z,100.00
2023-06-11T03:02:41.599Z,100.00
2023-06-11T03:05:43.646Z,100.00
2023-06-11T03:08:49.573Z,100.00
2023-06-11T03:11:52.671Z,100.00
2023-06-11T03:14:54.501Z,100.00
2023-06-11T03:17:56.842Z,100.00
2023-06-11T03:20:59.430Z,100.00
2023-06-11T03:24:01.324Z,100.00
2023-06-11T03:27:04.686Z,100.00
2023-06-11T03:30:07.907Z,100.00
2023-06-11T03:33:12.350Z,100.00
2023-06-11T03:36:14.576Z,100.00
2023-06-11T03:39:18.109Z,100.00
2023-06-11T03:42:22.605Z,100.00
2023-06-11T03:45:24.758Z,100.00
2023-06-11T03:48:26.710Z,100.00
2023-06-11T03:51:28.655Z,100.00
2023-06-11T03:54:32.698Z,100.00
2023-06-11T03:57:34.722Z,100.00
2023-06-11T04:00:36.665Z,100.00
2023-06-11T04:03:38.622Z,100.00
2023-06-11T04:06:41.637Z,100.00
2023-06-11T04:09:43.949Z,100.00
2023-06-11T04:12:48.786Z,100.00
2023-06-11T04:15:51.012Z,100.00
2023-06-11T04:18:53.418Z,100.00
2023-06-11T04:21:55.562Z,100.00
2023-06-11T04:24:58.860Z,100.00
2023-06-11T04:28:01.018Z,100.00
2023-06-11T04:31:04.361Z,100.00
2023-06-11T04:34:12.022Z,100.00
2023-06-11T04:37:17.343Z,100.00
2023-06-11T04:40:20.770Z,100.00
2023-06-11T04:43:24.862Z,100.00
2023-06-11T04:46:28.190Z,100.00
2023-06-11T04:49:30.337Z,100.00
2023-06-11T04:52:33.372Z,100.00
2023-06-11T04:55:39.932Z,100.00
2023-06-11T04:58:42.485Z,100.00
2023-06-11T05:01:48.287Z,100.00
2023-06-11T05:04:55.128Z,100.00
2023-06-11T05:07:57.096Z,100.00
2023-06-11T05:11:01.677Z,100.00
2023-06-11T05:14:06.854Z,100.00
2023-06-11T05:17:08.674Z,100.00
2023-06-11T05:20:11.887Z,100.00
2023-06-11T05:23:14.283Z,100.00
2023-06-11T05:26:16.376Z,100.00
2023-06-11T05:29:21.638Z,100.00
2023-06-11T05:32:24.019Z,100.00
2023-06-11T05:35:26.813Z,100.00
2023-06-11T05:38:30.085Z,100.00
2023-06-11T05:41:33.143Z,100.00
2023-06-11T05:44:37.438Z,100.00
2023-06-11T05:47:39.602Z,100.00
2023-06-11T05:50:41.660Z,100.00
2023-06-11T05:53:43.898Z,100.00
2023-06-11T05:56:46.930Z,100.00
2023-06-11T05:59:50.386Z,100.00
2023-06-11T06:02:54.214Z,100.00
2023-06-11T06:06:02.587Z,100.00
2023-06-11T06:09:04.553Z,100.00
2023-06-11T06:12:09.024Z,100.00
2023-06-11T06:15:12.014Z,100.00
2023-06-11T06:18:19.382Z,100.00
2023-06-11T06:21:21.425Z,100.00
2023-06-11T06:24:23.363Z,100.00
2023-06-11T06:27:25.495Z,100.00
2023-06-11T06:30:27.349Z,100.00
2023-06-11T06:33:31.669Z,100.00
2023-06-11T06:36:36.766Z,100.00
2023-06-11T06:39:38.637Z,100.00
2023-06-11T06:42:40.525Z,100.00
2023-06-11T06:45:44.312Z,100.00
2023-06-11T06:48:56.808Z,100.00
2023-06-11T06:51:58.525Z,100.00
2023-06-11T06:55:01.184Z,100.00
2023-06-11T06:58:03.056Z,100.00
2023-06-11T07:01:05.638Z,100.00
2023-06-11T07:04:07.419Z,100.00
2023-06-11T07:07:09.059Z,100.00
2023-06-11T07:10:11.946Z,100.00
2023-06-11T07:13:14.284Z,100.00
2023-06-11T07:16:16.463Z,100.00
2023-06-11T07:19:27.905Z,100.00
2023-06-11T07:22:29.753Z,100.00
2023-06-11T07:25:32.402Z,100.00
2023-06-11T07:28:36.517Z,100.00
2023-06-11T07:31:38.433Z,100.00
2023-06-11T07:34:41.268Z,100.00
2023-06-11T07:37:43.271Z,100.00
2023-06-11T07:40:46.456Z,100.00
2023-06-11T07:43:49.065Z,100.00
2023-06-11T07:46:54.420Z,100.00
2023-06-11T07:49:56.970Z,100.00
2023-06-11T07:53:01.862Z,100.00
2023-06-11T07:56:04.810Z,100.00
2023-06-11T07:59:08.038Z,100.00
2023-06-11T08:02:10.225Z,100.00
2023-06-11T08:05:12.891Z,100.00
2023-06-11T08:08:14.989Z,100.00
2023-06-11T08:11:16.723Z,100.00
2023-06-11T08:14:20.369Z,100.00
2023-06-11T08:17:22.079Z,100.00
2023-06-11T08:20:24.224Z,100.00
2023-06-11T08:23:26.281Z,100.00
2023-06-11T08:26:30.131Z,100.00
2023-06-11T08:29:32.466Z,100.00
2023-06-11T08:32:34.269Z,100.00
2023-06-11T08:35:36.202Z,100.00
2023-06-11T08:38:39.173Z,100.00
2023-06-11T08:41:41.437Z,100.00
2023-06-11T08:44:46.591Z,100.00
2023-06-11T08:47:53.148Z,100.00
2023-06-11T08:50:56.085Z,100.00
2023-06-11T08:53:58.205Z,100.00
2023-06-11T08:57:01.040Z,100.00
2023-06-11T09:00:03.120Z,100.00
2023-06-11T09:03:05.654Z,100.00
2023-06-11T09:06:07.600Z,100.00
2023-06-11T09:09:13.241Z,100.00
2023-06-11T09:12:15.440Z,100.00
2023-06-11T09:15:18.825Z,100.00
2023-06-11T09:18:22.761Z,100.00
2023-06-11T09:21:26.188Z,100.00
2023-06-11T09:24:28.053Z,100.00
2023-06-11T09:27:29.738Z,100.00
2023-06-11T09:30:31.824Z,100.00
2023-06-11T09:33:34.235Z,100.00
2023-06-11T09:36:36.882Z,100.00
2023-06-11T09:39:41.057Z,100.00
2023-06-11T09:42:48.275Z,100.00
2023-06-11T09:45:54.028Z,100.00
2023-06-11T09:48:56.315Z,100.00
2023-06-11T09:51:59.145Z,100.00
2023-06-11T09:55:03.665Z,100.00
2023-06-11T09:58:06.206Z,100.00
2023-06-11T10:01:08.842Z,100.00
2023-06-11T10:04:11.343Z,100.00
2023-06-11T10:07:14.032Z,100.00
2023-06-11T10:10:21.011Z,100.00
2023-06-11T10:13:36.901Z,100.00
2023-06-11T10:16:39.052Z,94.92
2023-06-11T10:19:41.502Z,92.96
2023-06-11T10:22:43.560Z,100.00
2023-06-11T10:25:54.010Z,95.53
2023-06-11T10:28:56.352Z,87.10
2023-06-11T10:31:58.198Z,79.67
2023-06-11T10:35:05.924Z,75.71
2023-06-11T10:38:14.101Z,66.78
2023-06-11T10:41:16.569Z,64.35
2023-06-11T10:44:25.181Z,66.08
2023-06-11T10:47:30.462Z,62.97
2023-06-11T10:50:34.979Z,57.46
2023-06-11T10:53:42.246Z,59.83
2023-06-11T10:56:46.638Z,52.98
2023-06-11T10:59:51.798Z,51.28
2023-06-11T11:02:55.823Z,55.83
2023-06-11T11:06:00.196Z,50.96
2023-06-11T11:09:04.674Z,51.82
2023-06-11T11:12:08.347Z,49.96
2023-06-11T11:15:12.176Z,51.63
2023-06-11T11:18:14.473Z,54.20
2023-06-11T11:21:16.654Z,53.04
2023-06-11T11:24:20.418Z,52.26
2023-06-11T11:27:28.593Z,59.84
2023-06-11T11:30:31.796Z,55.62
2023-06-11T11:33:38.603Z,50.93
2023-06-11T11:36:40.876Z,53.54
2023-06-11T11:39:42.783Z,51.70
2023-06-11T11:42:52.341Z,49.39
2023-06-11T11:45:54.522Z,49.98
2023-06-11T11:48:56.953Z,52.20
2023-06-11T11:52:01.933Z,51.97
2023-06-11T11:55:05.677Z,54.66
2023-06-11T11:58:16.358Z,55.26
2023-06-11T12:01:31.618Z,51.27
2023-06-11T12:04:47.540Z,51.00
2023-06-11T12:07:53.675Z,51.30
2023-06-11T12:10:56.106Z,49.92
2023-06-11T12:13:58.104Z,48.31
2023-06-11T12:17:00.413Z,47.61
2023-06-11T12:20:02.256Z,46.35
2023-06-11T12:23:04.451Z,47.30
2023-06-11T12:26:06.845Z,46.46
2023-06-11T12:29:08.761Z,44.85
2023-06-11T12:32:16.807Z,45.60
2023-06-11T12:35:18.943Z,46.78
2023-06-11T12:38:21.603Z,46.67
2023-06-11T12:41:23.422Z,44.64
2023-06-11T12:44:25.610Z,43.95
2023-06-11T12:47:27.853Z,42.28
2023-06-11T12:50:29.653Z,42.47
2023-06-11T12:53:31.665Z,41.84
2023-06-11T12:56:33.405Z,42.26
2023-06-11T12:59:35.297Z,42.71
2023-06-11T13:02:43.380Z,43.91
2023-06-11T13:05:45.632Z,42.42
2023-06-11T13:08:47.632Z,42.31
2023-06-11T13:11:50.362Z,42.53
2023-06-11T13:14:52.942Z,41.12
2023-06-11T13:17:54.786Z,41.47
2023-06-11T13:21:00.233Z,41.43
2023-06-11T13:24:03.303Z,41.99
2023-06-11T13:27:05.871Z,40.40
2023-06-11T13:30:11.453Z,39.59
2023-06-11T13:33:13.644Z,37.80
2023-06-11T13:36:17.134Z,37.97
2023-06-11T13:39:18.838Z,38.46
2023-06-11T13:42:20.604Z,39.95
2023-06-11T13:45:22.472Z,39.96
2023-06-11T13:48:24.245Z,37.32
2023-06-11T13:51:28.852Z,37.63
2023-06-11T13:54:33.234Z,38.05
2023-06-11T13:57:35.082Z,38.20
2023-06-11T14:00:37.045Z,39.02
2023-06-11T14:03:39.038Z,37.67
2023-06-11T14:06:40.864Z,35.85
2023-06-11T14:09:43.053Z,37.88
2023-06-11T14:12:44.913Z,37.25
2023-06-11T14:15:46.942Z,37.91
2023-06-11T14:18:49.006Z,37.00
2023-06-11T14:21:50.948Z,36.24
2023-06-11T14:24:52.944Z,35.16
2023-06-11T14:27:56.298Z,35.95
2023-06-11T14:31:03.470Z,36.65
2023-06-11T14:34:05.597Z,35.54
2023-06-11T14:37:08.637Z,36.93
2023-06-11T14:40:11.018Z,38.89
2023-06-11T14:43:13.163Z,35.90
2023-06-11T14:46:15.267Z,37.18
2023-06-11T14:49:21.077Z,35.03
2023-06-11T14:52:23.491Z,34.98
2023-06-11T14:55:25.563Z,34.26
2023-06-11T14:58:27.420Z,35.40
2023-06-11T15:01:29.472Z,35.48
2023-06-11T15:04:31.371Z,33.45
2023-06-11T15:07:35.806Z,34.49
2023-06-11T15:10:40.337Z,35.90
2023-06-11T15:13:42.424Z,35.61
2023-06-11T15:16:45.933Z,34.96
2023-06-11T15:19:48.066Z,36.66
2023-06-11T15:22:49.976Z,36.69
2023-06-11T15:25:52.678Z,35.08
2023-06-11T15:28:54.651Z,35.19
2023-06-11T15:31:59.707Z,34.97
2023-06-11T15:35:01.884Z,34.39
2023-06-11T15:38:04.701Z,33.83
2023-06-11T15:41:06.672Z,34.80
2023-06-11T15:44:08.729Z,33.43
2023-06-11T15:47:10.858Z,33.19
2023-06-11T15:50:13.074Z,34.72
2023-06-11T15:53:15.787Z,32.41
2023-06-11T15:56:18.989Z,31.60
2023-06-11T15:59:20.811Z,30.36
2023-06-11T16:02:22.582Z,31.55
2023-06-11T16:05:24.634Z,30.83
2023-06-11T16:08:26.604Z,29.59
2023-06-11T16:11:28.515Z,28.18
2023-06-11T16:14:30.416Z,27.98
2023-06-11T16:17:32.443Z,28.14
2023-06-11T16:20:34.395Z,27.90
2023-06-11T16:23:37.218Z,27.70
2023-06-11T16:26:39.087Z,27.02
2023-06-11T16:29:40.787Z,26.94
2023-06-11T16:32:43.488Z,26.59
2023-06-11T16:35:45.401Z,26.53
2023-06-11T16:38:47.237Z,25.58
2023-06-11T16:41:49.291Z,25.07
2023-06-11T16:44:51.513Z,25.17
2023-06-11T16:47:53.786Z,24.66
2023-06-11T16:50:55.732Z,24.49
2023-06-11T16:53:57.798Z,25.13
2023-06-11T16:57:00.830Z,25.10
2023-06-11T17:00:06.028Z,23.80
2023-06-11T17:03:09.139Z,24.68
2023-06-11T17:06:11.297Z,23.76
2023-06-11T17:09:13.267Z,24.23
2023-06-11T17:12:15.537Z,25.32
2023-06-11T17:15:17.686Z,25.53
2023-06-11T17:18:19.316Z,26.54
2023-06-11T17:21:21.213Z,27.24
2023-06-11T17:24:23.373Z,26.55
2023-06-11T17:27:25.520Z,27.47
2023-06-11T17:30:27.709Z,28.29
2023-06-11T17:33:29.437Z,28.72
2023-06-11T17:36:31.234Z,29.88
2023-06-11T17:39:33.399Z,30.14
2023-06-11T17:42:35.327Z,30.59
2023-06-11T17:45:37.284Z,30.67
2023-06-11T17:48:39.179Z,30.88
2023-06-11T17:51:42.730Z,31.87
2023-06-11T17:54:45.048Z,31.45
2023-06-11T17:57:47.811Z,31.12
2023-06-11T18:00:49.653Z,31.61
2023-06-11T18:03:51.594Z,32.41
2023-06-11T18:06:53.720Z,32.64
2023-06-11T18:09:55.773Z,32.15
2023-06-11T18:12:57.726Z,32.48
2023-06-11T18:15:59.515Z,32.36
2023-06-11T18:19:01.527Z,31.64
2023-06-11T18:22:03.719Z,30.94
2023-06-11T18:25:07.057Z,31.10
2023-06-11T18:28:10.337Z,31.23
2023-06-11T18:31:13.313Z,30.26
2023-06-11T18:34:17.178Z,29.19
2023-06-11T18:37:19.025Z,27.91
2023-06-11T18:40:21.033Z,27.52
2023-06-11T18:43:22.826Z,27.16
2023-06-11T18:46:25.978Z,27.51
2023-06-11T18:49:29.808Z,27.81
2023-06-11T18:52:32.598Z,28.31
2023-06-11T18:55:34.688Z,28.65
2023-06-11T18:58:37.585Z,29.74
2023-06-11T19:01:39.611Z,30.58
2023-06-11T19:04:42.444Z,32.82
2023-06-11T19:07:44.859Z,32.77
2023-06-11T19:10:50.221Z,34.75
2023-06-11T19:13:52.012Z,37.32
2023-06-11T19:16:53.950Z,39.82
2023-06-11T19:19:55.923Z,42.33
2023-06-11T19:22:57.639Z,44.00
2023-06-11T19:25:59.602Z,45.09
2023-06-11T19:29:01.498Z,47.12
2023-06-11T19:32:04.253Z,48.51
2023-06-11T19:35:06.864Z,50.19
2023-06-11T19:38:08.875Z,52.19
2023-06-11T19:41:13.039Z,52.77
2023-06-11T19:44:16.630Z,55.59
2023-06-11T19:47:18.626Z,57.25
2023-06-11T19:50:25.645Z,58.16
2023-06-11T19:53:27.526Z,59.72
2023-06-11T19:56:29.411Z,59.76
2023-06-11T19:59:31.909Z,62.86
2023-06-11T20:02:34.188Z,62.44
2023-06-11T20:05:36.312Z,63.46
2023-06-11T20:08:38.426Z,66.29
2023-06-11T20:11:40.351Z,66.46
2023-06-11T20:14:42.228Z,68.08
2023-06-11T20:17:44.150Z,71.35
2023-06-11T20:20:48.832Z,72.96
2023-06-11T20:23:50.721Z,74.58
2023-06-11T20:26:54.029Z,74.04
2023-06-11T20:29:55.872Z,76.81
2023-06-11T20:32:57.768Z,75.54
2023-06-11T20:35:59.515Z,75.48
2023-06-11T20:39:02.908Z,76.11
2023-06-11T20:42:05.223Z,81.18
2023-06-11T20:45:10.025Z,76.74
2023-06-11T20:48:11.759Z,78.55
2023-06-11T20:51:13.369Z,81.35
2023-06-11T20:54:15.306Z,82.99
2023-06-11T20:57:16.904Z,81.97
2023-06-11T21:00:19.080Z,82.63
2023-06-11T21:03:20.909Z,87.12
2023-06-11T21:06:22.959Z,85.07
2023-06-11T21:09:24.600Z,90.48
2023-06-11T21:12:28.791Z,87.40
2023-06-11T21:15:30.842Z,85.82
2023-06-11T21:18:32.603Z,93.41
2023-06-11T21:21:34.394Z,97.78
2023-06-11T21:24:36.509Z,97.65
2023-06-11T21:27:39.534Z,100.00
2023-06-11T21:30:41.645Z,100.00
2023-06-11T21:33:43.366Z,100.00
2023-06-11T21:36:45.496Z,100.00
2023-06-11T21:39:47.237Z,100.00
2023-06-11T21:42:49.084Z,100.00
2023-06-11T21:45:50.987Z,100.00
2023-06-11T21:48:52.608Z,100.00
2023-06-11T21:51:54.633Z,100.00
2023-06-11T21:54:58.459Z,100.00
2023-06-11T21:58:04.345Z,100.00
2023-06-11T22:01:06.097Z,100.00
2023-06-11T22:04:08.134Z,100.00
2023-06-11T22:07:10.439Z,100.00
2023-06-11T22:10:12.798Z,100.00
2023-06-11T22:13:15.537Z,100.00
2023-06-11T22:16:17.554Z,100.00
2023-06-11T22:19:19.976Z,100.00
2023-06-11T22:22:22.133Z,100.00
2023-06-11T22:25:25.626Z,100.00
2023-06-11T22:28:29.087Z,100.00
2023-06-11T22:31:31.037Z,100.00
2023-06-11T22:34:32.961Z,100.00
2023-06-11T22:37:37.677Z,100.00
2023-06-11T22:40:39.575Z,100.00
2023-06-11T22:43:41.324Z,100.00
2023-06-11T22:46:43.213Z,100.00
2023-06-11T22:49:45.085Z,100.00
2023-06-11T22:52:50.595Z,100.00
2023-06-11T22:55:52.282Z,100.00
2023-06-11T22:58:54.067Z,100.00
2023-06-11T23:01:56.206Z,100.00
2023-06-11T23:04:57.938Z,100.00
2023-06-11T23:08:01.115Z,100.00
2023-06-11T23:11:02.852Z,100.00
2023-06-11T23:14:04.483Z,100.00
2023-06-11T23:17:10.542Z,100.00
2023-06-11T23:20:13.073Z,100.00
2023-06-11T23:23:16.873Z,100.00
2023-06-11T23:26:18.857Z,100.00
2023-06-11T23:29:20.554Z,100.00
2023-06-11T23:32:22.311Z,100.00
2023-06-11T23:35:24.149Z,100.00
2023-06-11T23:38:26.903Z,100.00
2023-06-11T23:41:28.630Z,100.00
2023-06-11T23:44:30.466Z,100.00
2023-06-11T23:47:32.570Z,100.00
2023-06-11T23:50:34.589Z,100.00
2023-06-11T23:53:37.091Z,100.00
2023-06-11T23:56:38.901Z,100.00
2023-06-11T23:59:41.043Z,100.00
